createdAt,value
2022-08-14T00:01:00.905Z,100147.22
2022-08-14T00:03:29.278Z,100131.59
2022-08-14T00:05:58.221Z,100128.06
2022-08-14T00:08:44.798Z,100125.66
2022-08-14T00:11:11.695Z,100109.03
2022-08-14T00:13:38.593Z,100105.53
2022-08-14T00:16:04.819Z,100098.69
2022-08-14T00:19:06.113Z,100111.19
2022-08-14T00:21:20.231Z,100113.00
2022-08-14T00:23:54.375Z,100106.81
2022-08-14T00:26:27.685Z,100101.28
2022-08-14T00:28:55.958Z,100096.25
2022-08-14T00:31:30.839Z,100101.69
2022-08-14T00:34:36.957Z,100102.47
2022-08-14T00:36:54.838Z,100094.28
2022-08-14T00:39:25.692Z,100091.47
2022-08-14T00:41:52.053Z,100087.50
2022-08-14T00:44:32.611Z,100095.38
2022-08-14T00:46:59.368Z,100095.91
2022-08-14T00:49:25.551Z,100090.75
2022-08-14T00:51:52.864Z,100093.03
2022-08-14T00:54:21.846Z,100093.47
2022-08-14T00:56:48.502Z,100091.19
2022-08-14T00:59:14.715Z,100080.25
2022-08-14T01:01:42.470Z,100084.56
2022-08-14T01:04:08.762Z,100089.38
2022-08-14T01:06:55.293Z,100079.56
2022-08-14T01:09:21.662Z,100077.25
2022-08-14T01:11:57.328Z,100067.75
2022-08-14T01:14:29.751Z,100069.50
2022-08-14T01:16:56.127Z,100064.56
2022-08-14T01:19:22.322Z,100069.56
2022-08-14T01:21:52.968Z,100064.22
2022-08-14T01:24:22.884Z,100067.25
2022-08-14T01:26:56.921Z,100058.47
2022-08-14T01:29:48.658Z,100056.94
2022-08-14T01:32:10.512Z,100048.00
2022-08-14T01:35:18.013Z,100031.06
2022-08-14T01:37:23.099Z,100027.44
2022-08-14T01:39:49.351Z,100025.25
2022-08-14T01:42:31.495Z,100013.13
2022-08-14T01:45:02.129Z,100003.50
2022-08-14T01:47:37.067Z,100012.97
2022-08-14T01:50:03.779Z,100016.91
2022-08-14T01:52:34.080Z,100019.38
2022-08-14T01:55:16.326Z,100019.72
2022-08-14T01:58:01.069Z,100023.50
2022-08-14T02:00:29.446Z,100015.28
2022-08-14T02:02:57.299Z,100020.03
2022-08-14T02:05:23.927Z,100019.97
2022-08-14T02:07:55.750Z,100008.38
2022-08-14T02:10:36.608Z,100012.97
2022-08-14T02:13:13.088Z,100016.38
2022-08-14T02:15:39.305Z,100018.69
2022-08-14T02:18:09.638Z,100014.97
2022-08-14T02:20:37.503Z,100020.97
2022-08-14T02:23:03.694Z,100008.91
2022-08-14T02:25:31.102Z,100014.16
2022-08-14T02:28:25.235Z,100010.63
2022-08-14T02:30:43.564Z,100015.41
2022-08-14T02:33:11.630Z,100003.03
2022-08-14T02:35:40.765Z,100009.91
2022-08-14T02:38:07.332Z,100006.34
2022-08-14T02:40:38.172Z,100006.22
2022-08-14T02:43:05.526Z,100000.53
2022-08-14T02:45:38.800Z,100004.22
2022-08-14T02:49:04.728Z,100003.50
2022-08-14T02:50:57.208Z,99998.50
2022-08-14T02:53:27.241Z,99995.78
2022-08-14T02:55:55.722Z,99998.81
2022-08-14T02:58:30.580Z,99991.91
2022-08-14T03:00:57.512Z,100000.19
2022-08-14T03:03:23.811Z,99999.13
2022-08-14T03:05:50.737Z,99999.13
2022-08-14T03:08:20.470Z,99998.03
2022-08-14T03:10:48.702Z,100004.72
2022-08-14T03:13:19.736Z,99998.88
2022-08-14T03:15:47.478Z,100001.44
2022-08-14T03:18:18.502Z,100005.47
2022-08-14T03:20:44.841Z,100000.91
2022-08-14T03:23:12.610Z,100007.75
2022-08-14T03:25:38.795Z,100008.44
2022-08-14T03:28:07.001Z,100009.13
2022-08-14T03:30:39.602Z,100011.66
2022-08-14T03:33:06.997Z,100004.28
2022-08-14T03:35:40.400Z,100004.28
2022-08-14T03:39:11.719Z,100003.72
2022-08-14T03:41:06.435Z,100005.69
2022-08-14T03:43:33.267Z,100005.41
2022-08-14T03:45:59.699Z,99988.84
2022-08-14T03:48:30.245Z,99996.75
2022-08-14T03:50:57.563Z,100001.06
2022-08-14T03:53:25.100Z,99990.47
2022-08-14T03:55:51.360Z,99990.59
2022-08-14T03:58:23.726Z,99991.81
2022-08-14T04:01:01.515Z,99980.84
2022-08-14T04:03:27.746Z,99985.72
2022-08-14T04:05:55.310Z,99988.47
2022-08-14T04:08:29.441Z,99992.22
2022-08-14T04:10:57.098Z,99999.88
2022-08-14T04:13:23.735Z,100002.75
2022-08-14T04:15:56.177Z,100002.31
2022-08-14T04:18:28.413Z,99999.94
2022-08-14T04:20:55.985Z,99994.38
2022-08-14T04:23:23.786Z,99995.34
2022-08-14T04:25:56.263Z,99998.28
2022-08-14T04:29:01.923Z,99999.34
2022-08-14T04:31:08.843Z,99993.09
2022-08-14T04:33:37.294Z,99994.34
2022-08-14T04:36:03.649Z,99997.84
2022-08-14T04:38:36.596Z,99995.69
2022-08-14T04:41:04.546Z,99996.81
2022-08-14T04:43:38.623Z,100002.09
2022-08-14T04:46:06.798Z,100001.22
2022-08-14T04:48:43.466Z,99996.44
2022-08-14T04:51:17.177Z,99997.16
2022-08-14T04:53:43.698Z,99990.69
2022-08-14T04:56:10.721Z,99992.38
2022-08-14T04:58:56.481Z,99996.56
2022-08-14T05:01:22.749Z,99994.19
2022-08-14T05:03:49.027Z,99996.69
2022-08-14T05:06:37.248Z,99994.00
2022-08-14T05:09:03.063Z,99999.53
2022-08-14T05:11:29.263Z,99991.09
2022-08-14T05:14:34.116Z,100003.19
2022-08-14T05:16:41.826Z,99999.31
2022-08-14T05:19:18.973Z,99998.03
2022-08-14T05:21:57.554Z,99987.50
2022-08-14T05:24:27.089Z,99984.06
2022-08-14T05:26:53.316Z,99986.03
2022-08-14T05:29:19.557Z,99989.69
2022-08-14T05:31:45.889Z,99991.66
2022-08-14T05:34:12.076Z,99983.19
2022-08-14T05:36:39.400Z,99980.44
2022-08-14T05:39:05.729Z,99988.28
2022-08-14T05:41:53.656Z,99988.84
2022-08-14T05:44:20.388Z,99989.69
2022-08-14T05:46:46.666Z,99985.59
2022-08-14T05:49:13.066Z,99989.78
2022-08-14T05:51:39.264Z,99980.28
2022-08-14T05:54:13.611Z,99984.28
2022-08-14T05:56:51.598Z,99984.78
2022-08-14T05:59:17.921Z,99982.25
2022-08-14T06:01:45.626Z,99985.56
2022-08-14T06:04:12.856Z,99974.69
2022-08-14T06:06:39.044Z,99969.28
2022-08-14T06:09:05.345Z,99964.13
2022-08-14T06:11:35.953Z,99961.59
2022-08-14T06:14:03.683Z,99957.72
2022-08-14T06:16:33.081Z,99963.78
2022-08-14T06:18:59.565Z,99968.31
2022-08-14T06:21:25.937Z,99970.34
2022-08-14T06:23:52.250Z,99957.91
2022-08-14T06:26:20.582Z,99964.59
2022-08-14T06:28:48.445Z,99956.56
2022-08-14T06:31:18.720Z,99947.22
2022-08-14T06:35:09.882Z,99943.81
2022-08-14T06:36:32.854Z,99935.78
2022-08-14T06:38:59.024Z,99931.28
2022-08-14T06:41:56.915Z,99923.47
2022-08-14T06:44:11.669Z,99916.63
2022-08-14T06:46:38.237Z,99914.91
2022-08-14T06:49:04.414Z,99914.66
2022-08-14T06:51:38.679Z,99904.63
2022-08-14T06:54:10.941Z,99906.69
2022-08-14T06:56:38.245Z,99907.28
2022-08-14T06:59:05.364Z,99892.31
2022-08-14T07:01:32.443Z,99897.19
2022-08-14T07:03:58.641Z,99888.28
2022-08-14T07:06:46.530Z,99902.06
2022-08-14T07:09:11.683Z,99892.81
2022-08-14T07:11:37.871Z,99896.63
2022-08-14T07:14:04.089Z,99901.13
2022-08-14T07:16:30.401Z,99888.22
2022-08-14T07:18:56.548Z,99894.34
2022-08-14T07:21:22.707Z,99892.44
2022-08-14T07:23:48.886Z,99893.69
2022-08-14T07:26:17.757Z,99891.84
2022-08-14T07:28:44.087Z,99887.78
2022-08-14T07:31:10.359Z,99878.94
2022-08-14T07:33:36.524Z,99887.84
2022-08-14T07:36:03.365Z,99889.34
2022-08-14T07:38:52.334Z,99896.63
2022-08-14T07:41:18.717Z,99899.97
2022-08-14T07:43:47.640Z,99904.00
2022-08-14T07:46:28.361Z,99902.00
2022-08-14T07:48:55.002Z,99901.53
2022-08-14T07:51:22.151Z,99907.03
2022-08-14T07:53:48.520Z,99911.16
2022-08-14T07:56:46.958Z,99908.59
2022-08-14T07:59:09.266Z,99909.63
2022-08-14T08:01:35.460Z,99901.75
2022-08-14T08:04:01.620Z,99906.06
2022-08-14T08:06:29.597Z,99899.13
2022-08-14T08:09:01.404Z,99913.03
2022-08-14T08:11:29.594Z,99909.94
2022-08-14T08:14:01.253Z,99912.13
2022-08-14T08:16:27.756Z,99909.09
2022-08-14T08:18:58.286Z,99906.44
2022-08-14T08:21:33.402Z,99898.91
2022-08-14T08:24:01.778Z,99904.34
2022-08-14T08:26:29.821Z,99909.53
2022-08-14T08:28:56.146Z,99902.22
2022-08-14T08:31:23.796Z,99897.09
2022-08-14T08:33:58.934Z,99881.22
2022-08-14T08:36:25.234Z,99884.97
2022-08-14T08:39:18.871Z,99877.03
2022-08-14T08:41:43.455Z,99872.19
2022-08-14T08:44:17.427Z,99878.88
2022-08-14T08:46:57.212Z,99875.00
2022-08-14T08:49:36.377Z,99878.38
2022-08-14T08:52:15.217Z,99872.25
2022-08-14T08:54:50.995Z,99864.81
2022-08-14T08:57:21.518Z,99862.13
2022-08-14T08:59:47.887Z,99866.47
2022-08-14T09:02:21.579Z,99860.44
2022-08-14T09:04:53.541Z,99857.59
2022-08-14T09:07:20.067Z,99848.91
2022-08-14T09:09:54.543Z,99849.53
2022-08-14T09:12:24.957Z,99842.06
2022-08-14T09:14:53.325Z,99845.31
2022-08-14T09:17:19.494Z,99840.97
2022-08-14T09:19:45.701Z,99843.47
2022-08-14T09:22:35.281Z,99839.34
2022-08-14T09:24:58.118Z,99838.50
2022-08-14T09:27:25.850Z,99822.19
2022-08-14T09:29:54.133Z,99824.88
2022-08-14T09:33:08.976Z,99822.69
2022-08-14T09:35:08.476Z,99830.78
2022-08-14T09:37:34.880Z,99819.97
2022-08-14T09:40:01.092Z,99809.75
2022-08-14T09:42:33.434Z,99800.38
2022-08-14T09:45:02.919Z,99806.97
2022-08-14T09:47:34.395Z,99809.63
2022-08-14T09:50:00.605Z,99821.59
2022-08-14T09:52:34.175Z,99825.66
2022-08-14T09:55:00.965Z,99827.13
2022-08-14T09:57:27.517Z,99823.22
2022-08-14T09:59:54.006Z,99819.34
2022-08-14T10:02:20.382Z,99821.59
2022-08-14T10:04:49.975Z,99820.41
2022-08-14T10:07:16.350Z,99811.84
2022-08-14T10:09:42.512Z,99815.22
2022-08-14T10:12:13.314Z,99798.69
2022-08-14T10:14:54.846Z,99801.59
2022-08-14T10:17:21.039Z,99792.91
2022-08-14T10:19:49.216Z,99782.34
2022-08-14T10:23:14.696Z,99782.41
2022-08-14T10:25:01.563Z,99773.78
2022-08-14T10:27:28.153Z,99772.81
2022-08-14T10:29:55.121Z,99766.16
2022-08-14T10:32:28.621Z,99772.16
2022-08-14T10:35:02.668Z,99777.63
2022-08-14T10:37:31.545Z,99769.06
2022-08-14T10:40:05.286Z,99759.56
2022-08-14T10:42:32.099Z,99750.25
2022-08-14T10:44:58.896Z,99735.25
2022-08-14T10:47:40.690Z,99728.50
2022-08-14T10:50:12.205Z,99710.13
2022-08-14T10:52:42.298Z,99702.47
2022-08-14T10:55:12.798Z,99709.63
2022-08-14T10:57:39.426Z,99705.19
2022-08-14T11:00:07.083Z,99704.25
2022-08-14T11:02:45.084Z,99691.63
2022-08-14T11:05:19.458Z,99683.41
2022-08-14T11:07:45.621Z,99684.69
2022-08-14T11:10:21.431Z,99679.88
2022-08-14T11:12:51.332Z,99677.97
2022-08-14T11:15:17.496Z,99679.06
2022-08-14T11:17:45.950Z,99671.75
2022-08-14T11:20:14.018Z,99684.75
2022-08-14T11:22:56.510Z,99678.63
2022-08-14T11:25:24.883Z,99671.66
2022-08-14T11:28:11.013Z,99671.13
2022-08-14T11:30:50.374Z,99670.97
2022-08-14T11:33:18.683Z,99669.22
2022-08-14T11:35:47.592Z,99671.78
2022-08-14T11:38:17.012Z,99678.53
2022-08-14T11:40:47.015Z,99682.28
2022-08-14T11:45:39.968Z,99663.53
2022-08-14T11:48:13.597Z,99669.09
2022-08-14T11:50:52.327Z,99666.84
2022-08-14T11:53:18.508Z,99666.38
2022-08-14T11:55:44.693Z,99666.50
2022-08-14T11:58:15.767Z,99670.78
2022-08-14T12:00:50.705Z,99671.16
2022-08-14T12:03:37.380Z,99665.84
2022-08-14T12:06:04.333Z,99647.63
2022-08-14T12:08:30.485Z,99654.81
2022-08-14T12:10:56.664Z,99645.63
2022-08-14T12:13:22.860Z,99641.16
2022-08-14T12:15:53.651Z,99635.06
2022-08-14T12:18:20.032Z,99611.59
2022-08-14T12:20:52.439Z,99604.28
2022-08-14T12:23:19.477Z,99612.03
2022-08-14T12:25:45.644Z,99613.03
2022-08-14T12:28:34.075Z,99605.16
2022-08-14T12:31:14.025Z,99600.47
2022-08-14T12:33:47.037Z,99594.50
2022-08-14T12:36:20.508Z,99597.53
2022-08-14T12:38:47.040Z,99594.34
2022-08-14T12:41:16.467Z,99584.09
2022-08-14T12:43:47.135Z,99578.66
2022-08-14T12:46:26.799Z,99575.47
2022-08-14T12:48:53.795Z,99563.41
2022-08-14T12:51:21.589Z,99562.78
2022-08-14T12:53:47.981Z,99573.47
2022-08-14T12:56:22.674Z,99564.25
2022-08-14T12:58:59.218Z,99565.16
2022-08-14T13:01:26.091Z,99562.63
2022-08-14T13:03:52.456Z,99560.78
2022-08-14T13:06:18.643Z,99552.56
2022-08-14T13:08:52.643Z,99552.25
2022-08-14T13:11:19.650Z,99540.91
2022-08-14T13:13:46.600Z,99539.78
2022-08-14T13:16:20.984Z,99541.81
2022-08-14T13:19:01.422Z,99531.31
2022-08-14T13:21:27.615Z,99517.63
2022-08-14T13:23:55.494Z,99519.91
2022-08-14T13:26:23.771Z,99533.16
2022-08-14T13:29:02.297Z,99535.69
2022-08-14T13:31:30.069Z,99523.19
2022-08-14T13:33:56.569Z,99512.97
2022-08-14T13:36:51.942Z,99510.16
2022-08-14T13:39:10.486Z,99505.03
2022-08-14T13:41:39.087Z,99504.09
2022-08-14T13:44:13.615Z,99495.16
2022-08-14T13:46:40.284Z,99495.00
2022-08-14T13:49:09.926Z,99476.31
2022-08-14T13:51:36.084Z,99481.56
2022-08-14T13:54:11.016Z,99487.78
2022-08-14T13:56:37.526Z,99485.22
2022-08-14T13:59:04.621Z,99450.69
2022-08-14T14:01:33.888Z,99473.53
2022-08-14T14:04:02.491Z,99470.38
2022-08-14T14:06:29.969Z,99462.50
2022-08-14T14:08:56.149Z,99460.19
2022-08-14T14:11:25.364Z,99455.50
2022-08-14T14:13:56.165Z,99451.97
2022-08-14T14:16:30.111Z,99459.78
2022-08-14T14:18:57.486Z,99460.59
2022-08-14T14:21:23.735Z,99456.34
2022-08-14T14:23:49.970Z,99447.47
2022-08-14T14:26:20.000Z,99441.72
2022-08-14T14:28:49.570Z,99436.78
2022-08-14T14:31:16.468Z,99434.25
2022-08-14T14:33:47.740Z,99435.72
2022-08-14T14:36:15.038Z,99429.38
2022-08-14T14:38:47.248Z,99423.25
2022-08-14T14:41:15.462Z,99421.75
2022-08-14T14:43:41.643Z,99421.63
2022-08-14T14:46:10.813Z,99415.88
2022-08-14T14:48:39.480Z,99417.56
2022-08-14T14:51:05.671Z,99420.53
2022-08-14T14:53:32.226Z,99414.19
2022-08-14T14:56:50.877Z,99418.13
2022-08-14T14:58:51.594Z,99418.28
2022-08-14T15:01:18.841Z,99414.09
2022-08-14T15:03:45.553Z,99415.34
2022-08-14T15:06:12.732Z,99405.19
2022-08-14T15:08:56.511Z,99410.75
2022-08-14T15:11:25.806Z,99407.66
2022-08-14T15:13:56.385Z,99398.75
2022-08-14T15:16:22.596Z,99403.03
2022-08-14T15:18:50.996Z,99398.78
2022-08-14T15:21:19.061Z,99406.47
2022-08-14T15:23:45.881Z,99395.97
2022-08-14T15:26:12.044Z,99407.06
2022-08-14T15:28:39.642Z,99406.72
2022-08-14T15:31:05.837Z,99402.22
2022-08-14T15:33:35.798Z,99405.66
2022-08-14T15:36:02.123Z,99401.41
2022-08-14T15:38:29.299Z,99397.06
2022-08-14T15:40:56.233Z,99393.84
2022-08-14T15:43:22.614Z,99400.28
2022-08-14T15:45:48.858Z,99393.84
2022-08-14T15:48:22.349Z,99397.63
2022-08-14T15:50:49.243Z,99396.34
2022-08-14T15:53:17.216Z,99394.25
2022-08-14T15:55:43.418Z,99393.91
2022-08-14T15:58:14.266Z,99396.88
2022-08-14T16:00:44.412Z,99397.28
2022-08-14T16:03:16.877Z,99395.44
2022-08-14T16:05:43.182Z,99395.56
2022-08-14T16:08:28.807Z,99398.84
2022-08-14T16:10:55.781Z,99388.84
2022-08-14T16:13:39.613Z,99391.88
2022-08-14T16:16:49.279Z,99388.47
2022-08-14T16:18:54.441Z,99385.50
2022-08-14T16:21:20.667Z,99384.38
2022-08-14T16:23:48.072Z,99383.53
2022-08-14T16:26:19.929Z,99378.00
2022-08-14T16:28:46.257Z,99380.03
2022-08-14T16:31:17.510Z,99378.19
2022-08-14T16:34:00.192Z,99382.19
2022-08-14T16:36:30.449Z,99371.38
2022-08-14T16:38:57.518Z,99366.19
2022-08-14T16:41:26.533Z,99361.03
2022-08-14T16:43:53.062Z,99368.03
2022-08-14T16:46:25.602Z,99370.19
2022-08-14T16:48:57.070Z,99364.84
2022-08-14T16:51:25.076Z,99371.09
2022-08-14T16:53:51.315Z,99373.94
2022-08-14T16:56:23.743Z,99370.81
2022-08-14T16:58:50.351Z,99366.63
2022-08-14T17:01:24.670Z,99358.44
2022-08-14T17:03:51.496Z,99356.56
2022-08-14T17:06:30.818Z,99359.13
2022-08-14T17:08:59.985Z,99362.16
2022-08-14T17:11:27.738Z,99349.75
2022-08-14T17:14:00.283Z,99359.94
2022-08-14T17:16:27.471Z,99356.69
2022-08-14T17:18:55.434Z,99355.63
2022-08-14T17:21:31.348Z,99358.22
2022-08-14T17:23:58.264Z,99353.16
2022-08-14T17:26:24.599Z,99354.91
2022-08-14T17:28:56.658Z,99351.84
2022-08-14T17:31:22.987Z,99349.94
2022-08-14T17:33:52.433Z,99350.09
2022-08-14T17:36:20.927Z,99341.34
2022-08-14T17:38:59.612Z,99337.44
2022-08-14T17:41:32.721Z,99345.47
2022-08-14T17:44:02.352Z,99343.25
2022-08-14T17:46:32.551Z,99339.47
2022-08-14T17:49:14.229Z,99342.28
2022-08-14T17:51:53.687Z,99351.78
2022-08-14T17:54:22.825Z,99344.22
2022-08-14T17:57:01.276Z,99354.28
2022-08-14T17:59:27.507Z,99361.19
2022-08-14T18:01:54.539Z,99359.44
2022-08-14T18:04:28.424Z,99357.81
2022-08-14T18:06:58.514Z,99352.34
2022-08-14T18:09:36.265Z,99352.22
2022-08-14T18:12:03.556Z,99359.50
2022-08-14T18:14:32.875Z,99358.91
2022-08-14T18:16:59.768Z,99360.63
2022-08-14T18:19:27.072Z,99362.72
2022-08-14T18:21:56.934Z,99366.28
2022-08-14T18:24:29.773Z,99364.00
2022-08-14T18:29:38.010Z,99366.06
2022-08-14T18:32:08.771Z,99371.22
2022-08-14T18:34:34.954Z,99363.78
2022-08-14T18:37:14.349Z,99374.09
2022-08-14T18:40:01.815Z,99376.97
2022-08-14T18:42:30.715Z,99384.19
2022-08-14T18:44:56.961Z,99376.69
2022-08-14T18:47:23.165Z,99384.09
2022-08-14T18:49:49.406Z,99380.97
2022-08-14T18:52:18.930Z,99385.75
2022-08-14T18:57:40.591Z,99387.75
2022-08-14T19:00:07.231Z,99395.94
2022-08-14T19:02:36.055Z,99398.00
2022-08-14T19:05:10.265Z,99396.13
2022-08-14T19:10:17.293Z,99407.66
2022-08-14T19:12:48.730Z,99402.19
2022-08-14T19:15:15.174Z,99407.44
2022-08-14T19:18:15.047Z,99409.38
2022-08-14T19:20:48.133Z,99405.28
2022-08-14T19:23:16.679Z,99404.97
2022-08-14T19:25:44.416Z,99408.59
2022-08-14T19:28:31.029Z,99405.69
2022-08-14T19:33:43.045Z,99407.78
2022-08-14T19:36:31.542Z,99406.50
2022-08-14T19:38:59.476Z,99413.63
2022-08-14T19:41:29.580Z,99406.84
2022-08-14T19:43:57.527Z,99426.69
2022-08-14T19:46:39.512Z,99420.28
2022-08-14T19:49:10.118Z,99429.25
2022-08-14T19:51:37.849Z,99430.06
2022-08-14T19:54:05.707Z,99436.81
2022-08-14T19:56:39.830Z,99432.94
2022-08-14T19:59:06.121Z,99436.72
2022-08-14T20:01:37.579Z,99425.00
2022-08-14T20:04:04.196Z,99437.06
2022-08-14T20:06:31.353Z,99434.91
2022-08-14T20:10:58.350Z,99431.53
2022-08-14T20:12:02.693Z,99437.91
2022-08-14T20:14:30.615Z,99436.59
2022-08-14T20:19:49.596Z,99447.31
2022-08-14T20:22:37.372Z,99455.75
2022-08-14T20:25:05.850Z,99465.53
2022-08-14T20:27:33.711Z,99459.91
2022-08-14T20:30:26.380Z,99462.78
2022-08-14T20:32:47.029Z,99455.78
2022-08-14T20:35:23.983Z,99455.34
2022-08-14T20:38:00.095Z,99449.34
2022-08-14T20:40:38.496Z,99458.16
2022-08-14T20:43:16.796Z,99459.16
2022-08-14T20:45:43.083Z,99460.75
2022-08-14T20:50:53.392Z,99460.00
2022-08-14T20:53:19.577Z,99472.31
2022-08-14T20:55:49.814Z,99482.69
2022-08-14T20:58:38.720Z,99481.41
2022-08-14T21:01:07.301Z,99495.69
2022-08-14T21:03:36.079Z,99486.97
2022-08-14T21:06:22.391Z,99487.97
2022-08-14T21:08:49.234Z,99483.50
2022-08-14T21:11:17.842Z,99487.78
2022-08-14T21:14:21.118Z,99491.00
2022-08-14T21:16:35.094Z,99483.75
2022-08-14T21:19:03.943Z,99479.75
2022-08-14T21:21:41.777Z,99476.09
2022-08-14T21:24:08.580Z,99478.41
2022-08-14T21:26:52.574Z,99480.25
2022-08-14T21:29:22.815Z,99485.75
2022-08-14T21:31:55.670Z,99486.59
2022-08-14T21:34:27.139Z,99479.41
2022-08-14T21:36:57.052Z,99480.25
2022-08-14T21:39:24.134Z,99483.25
2022-08-14T21:41:50.552Z,99483.44
2022-08-14T21:44:24.820Z,99483.09
2022-08-14T21:47:09.726Z,99475.09
2022-08-14T21:49:38.942Z,99476.09
2022-08-14T21:52:51.454Z,99476.63
2022-08-14T21:54:52.697Z,99478.00
2022-08-14T21:57:19.831Z,99478.19
2022-08-14T22:00:30.250Z,99480.66
2022-08-14T22:02:52.184Z,99479.09
2022-08-14T22:05:22.963Z,99481.94
2022-08-14T22:07:55.266Z,99479.28
2022-08-14T22:10:24.262Z,99480.50
2022-08-14T22:13:00.634Z,99487.63
2022-08-14T22:15:27.784Z,99489.28
2022-08-14T22:17:54.454Z,99487.09
2022-08-14T22:20:21.131Z,99497.34
2022-08-14T22:22:47.445Z,99493.66
2022-08-14T22:25:17.449Z,99490.63
2022-08-14T22:27:44.263Z,99482.16
2022-08-14T22:30:22.650Z,99479.09
2022-08-14T22:32:57.933Z,99479.47
2022-08-14T22:35:24.623Z,99481.66
2022-08-14T22:38:36.469Z,99480.13
2022-08-14T22:40:59.444Z,99487.22
2022-08-14T22:43:23.348Z,99483.19
2022-08-14T22:45:55.409Z,99480.06
2022-08-14T22:48:22.172Z,99486.41
2022-08-14T22:50:53.342Z,99484.25
2022-08-14T22:53:20.023Z,99498.59
2022-08-14T22:55:46.228Z,99489.88
2022-08-14T22:58:17.267Z,99500.31
2022-08-14T23:00:43.807Z,99488.81
2022-08-14T23:03:17.393Z,99491.72
2022-08-14T23:05:52.496Z,99490.84
2022-08-14T23:08:59.556Z,99499.63
2022-08-14T23:11:05.636Z,99493.31
2022-08-14T23:13:32.656Z,99493.59
2022-08-14T23:15:59.414Z,99496.38
2022-08-14T23:18:29.452Z,99491.34
2022-08-14T23:20:56.190Z,99507.06
2022-08-14T23:23:23.274Z,99503.66
2022-08-14T23:25:59.024Z,99511.53
2022-08-14T23:28:33.346Z,99503.84
2022-08-14T23:31:14.067Z,99508.19
2022-08-14T23:33:45.746Z,99501.81
2022-08-14T23:36:31.840Z,99502.84
2022-08-14T23:38:58.746Z,99496.03
2022-08-14T23:41:24.991Z,99498.97
2022-08-14T23:43:51.571Z,99482.69
2022-08-14T23:46:18.623Z,99486.09
2022-08-14T23:48:46.443Z,99482.13
2022-08-14T23:51:13.275Z,99491.72
2022-08-14T23:53:48.449Z,99486.91
2022-08-14T23:56:16.080Z,99491.91
2022-08-14T23:58:44.247Z,99495.56
